• Join FlightAware (Why Join?)
  • Login
  • US Flag 
Rudolph Flight #1: Arrived! 
06:59PM EST


 

Airport Tracker/Info


-or-


 

Live Flight TrackerFlight Track Log ✈ ASQ5929 ✈ 14-Jun-2013 ✈ KSYR - KORD

Flight Track Log - Related Links

Times and Time Zones

All times are in EDT time to prevent confusion due to time zone crossing. See the ASQ5929 flight status page for this flight to view local times or setup timezone preferences in your user account.

Time Position Orientation Groundspeed Altitude Reporting Facility
EDT Latitude Longitude Course Direction KTS MPH feet Rate Location/Type
09:55AM 43.1072 -76.1406 286° West 156 180 1,000  Level Boston Center
09:57AM 43.1031 -76.2083 265° West 173 199 3,100 1,620 Climbing Boston Center
09:58AM 43.1372 -76.3492 288° West 242 278 5,900 1,680 Climbing Cleveland Center
09:59AM 43.2049 -76.5339 281° West  Level FlightAware Approximate
09:59AM 43.1778 -76.4319 304° West 253 291 8,100  Level Cleveland Center
10:00AM 43.2238 -76.6498 286° West  Level FlightAware Approximate
10:00AM 43.2125 -76.5267 297° West 266 306 10,200  Level Cleveland Center
10:01AM 43.2483 -76.7638 286° West  Level FlightAware Approximate
10:01AM 43.2328 -76.6364 284° West 287 330 11,400  Level Cleveland Center
10:02AM 43.2514 -76.7550 282° West 308 354 12,500 1,020 Climbing Cleveland Center
10:03AM 43.2517 -76.8919 270° West 331 381 13,500 1,200 Climbing Cleveland Center
10:04AM 43.2456 -77.0289 267° West 352 405 14,900 1,500 Climbing Cleveland Center
10:05AM 43.2397 -77.1806 267° West 366 421 16,600 1,560 Climbing Cleveland Center
10:06AM 43.2353 -77.3147 267° West 366 421 18,100 1,500 Climbing Cleveland Center
10:07AM 43.2306 -77.4489 267° West 366 421 19,600 1,380 Climbing Cleveland Center
10:08AM 43.2239 -77.5858 266° West 366 421 20,900 1,140 Climbing Cleveland Center
10:09AM 43.2189 -77.7258 267° West 366 421 21,900 900 Climbing Cleveland Center
10:10AM 43.2142 -77.8686 267° West 366 421 22,800 900 Climbing Cleveland Center
10:11AM 43.2092 -78.0139 267° West 372 428 23,700 900 Climbing Cleveland Center
10:12AM 43.2017 -78.1594 266° West 382 440 24,700 900 Climbing Cleveland Center
10:13AM 43.1964 -78.3078 267° West 388 447 25,600 900 Climbing Cleveland Center
10:14AM 43.1908 -78.4561 267° West 388 447 26,600 960 Climbing Cleveland Center
10:15AM 43.1831 -78.6044 266° West 388 447 27,600 960 Climbing Cleveland Center
10:16AM 43.1750 -78.7500 266° West 388 447 28,600 960 Climbing Cleveland Center
10:18AM 43.1667 -78.9167 266° West 380 437 29,900 900 Climbing Toronto Center
10:19AM 43.1500 -79.0667 261° West 380 437 30,800 900 Climbing Toronto Center
10:20AM 43.1500 -79.2167 270° West 380 437 31,800 960 Climbing Toronto Center
10:21AM 43.1333 -79.3667 261° West 380 437 32,800 960 Climbing Toronto Center
10:22AM 43.1333 -79.5000 270° West 380 437 33,800 960 Climbing Toronto Center
10:23AM 43.1167 -79.6333 260° West 370 426 34,800 900 Climbing Toronto Center
10:24AM 43.1167 -79.7667 270° West 370 426 35,700 600 Climbing Toronto Center
10:25AM 43.1000 -79.9333 262° West 360 414 36,000 120 Climbing Toronto Center
10:26AM 43.1000 -80.0667 270° West 370 426 36,000  Level Toronto Center
10:27AM 43.0833 -80.2000 260° West 390 449 36,000  Level Toronto Center
10:28AM 43.0833 -80.3667 270° West 400 460 36,000  Level Toronto Center
10:29AM 43.0667 -80.5167 261° West 420 483 36,000  Level Toronto Center
10:30AM 43.0667 -80.6833 270° West 420 483 36,000  Level Toronto Center
10:31AM 43.0333 -80.8500 255° West 430 495 36,000  Level Toronto Center
10:32AM 43.0333 -81.0167 270° West 430 495 36,000  Level Toronto Center
10:33AM 43.0167 -81.1667 261° West 420 483 36,000  Level Toronto Center
10:34AM 43.0167 -81.3500 270° West 410 472 36,000  Level Toronto Center
10:35AM 43.0167 -81.4833 270° West 410 472 36,000  Level Toronto Center
10:36AM 43.0167 -81.6333 270° West 400 460 36,000  Level Toronto Center
10:37AM 43.0167 -81.8000 270° West 400 460 36,000  Level Toronto Center
10:38AM 43.0000 -81.9333 260° West 390 449 36,000  Level Toronto Center
10:39AM 43.0000 -82.0667 270° West 390 449 36,000  Level Toronto Center
10:40AM 43.0000 -82.2333 270° West 390 449 36,000  Level Toronto Center
10:41AM 43.0000 -82.3667 270° West 390 449 36,000  Level Toronto Center
10:42AM 43.0000 -82.5333 270° West 390 449 36,000 -420 Level Toronto Center
10:43AM 42.9833 -82.6667 260° West 390 449 35,200 -1,080 Descending Toronto Center
10:44AM 42.9833 -82.8167 270° West 390 449 33,900 -1,260 Descending Toronto Center
10:45AM 42.9667 -82.9833 262° West 410 472 32,700 -960 Descending Toronto Center
10:46AM 42.9667 -83.1333 270° West 420 483 32,000 -360 Descending Toronto Center
10:47AM 42.9500 -83.3000 262° West 410 472 32,000  Level Toronto Center
10:48AM 42.9500 -83.4333 270° West 410 472 32,000  Level Toronto Center
10:49AM 42.9333 -83.6167 263° West 410 472 32,000  Level Toronto Center
10:50AM 42.9167 -83.7500 260° West 420 483 32,000  Level Toronto Center
10:51AM 42.9167 -83.9333 270° West 420 483 32,000  Level Toronto Center
10:51AM 42.9247 -83.9669 288° West 420 483 32,000  Level Chicago Center
10:52AM 42.9144 -84.1242 265° West 429 494 32,000 -360 Level Cleveland Center
10:53AM 42.9017 -84.3133 265° West 419 482 31,300 -1,200 Descending Chicago Center
10:54AM 42.8917 -84.4739 265° West 425 489 29,300 -2,040 Descending Chicago Center
10:55AM 42.8778 -84.6356 263° West 431 496 27,200 -2,220 Descending Chicago Center
10:56AM 42.8614 -84.8011 262° West 440 506 24,800 -1,560 Descending Chicago Center
10:57AM 42.8447 -84.9622 262° West 434 499 24,000 -420 Descending Chicago Center
10:58AM 42.8286 -85.1142 262° West 411 473 24,000  Level Chicago Center
10:59AM 42.8081 -85.3019 262° West 417 480 24,000  Level Chicago Center
11:00AM 42.7903 -85.4631 262° West 427 491 24,000  Level Chicago Center
11:02AM 42.7631 -85.6258 257° West 437 503 24,000  Level Chicago Center
11:03AM 42.7336 -85.7903 256° West 444 511 24,000  Level Chicago Center
11:04AM 42.7036 -85.9536 256° West 441 507 24,000 -60 Level Chicago Center
11:05AM 42.6742 -86.1153 256° West 438 504 23,900 -900 Descending Chicago Center
11:06AM 42.6444 -86.2764 256° West 438 504 22,200 -2,040 Descending Chicago Center
11:07AM 42.6161 -86.4253 256° West 413 475 19,800 -1,860 Descending Chicago Center
11:08AM 42.5881 -86.5733 256° West 404 465 18,500 -1,080 Descending Chicago Center
11:09AM 42.5572 -86.7428 256° West 411 473 17,600 -1,200 Descending Chicago Center
11:10AM 42.5142 -86.8989 250° West 412 474 16,100 -1,860 Descending Chicago Center
11:11AM 42.4761 -87.0397 250° West 403 464 13,800 -2,400 Descending Chicago Center
11:12AM 42.4389 -87.1714 249° West 380 437 11,300 -1,860 Descending Chicago Center
11:13AM 42.4036 -87.2975 249° West 362 417 10,000 -660 Descending Chicago Center
11:14AM 42.3667 -87.4336 250° West 357 411 10,000  Level Chicago Center
11:15AM 42.3228 -87.5519 243° Southwest 367 422 10,000  Level Chicago Center
11:16AM 42.2444 -87.6333 218° Southwest 358 412 10,000  Level Chicago Center
11:17AM 42.1697 -87.7156 219° Southwest 349 402 10,000 -1,020 Level Chicago Center
11:18AM 42.0994 -87.8011 222° Southwest 289 333 7,900 -1,500 Descending Chicago Center
11:19AM 42.0694 -87.8983 247° West 281 323 7,000 -480 Descending Chicago Center
11:20AM 42.0558 -87.9908 259° West 255 293 7,000 -540 Level Chicago Center
11:21AM 42.0514 -88.0803 266° West 245 282 5,900 -1,080 Descending Chicago Center
11:22AM 42.0478 -88.1678 267° West 239 275 4,900 -900 Descending Chicago Center
11:23AM 41.9850 -88.1950 198° South 211 243 4,100 -780 Descending Chicago Center